createdAt,value
2022-08-24T00:01:33.409Z,26.20
2022-08-24T00:04:01.515Z,275.63
2022-08-24T00:06:32.024Z,295.47
2022-08-24T00:09:00.232Z,406.53
2022-08-24T00:11:28.652Z,71.97
2022-08-24T00:13:57.383Z,26.33
2022-08-24T00:16:26.248Z,21.23
2022-08-24T00:18:56.339Z,22.27
2022-08-24T00:21:26.052Z,23.17
2022-08-24T00:23:54.417Z,22.50
2022-08-24T00:26:28.649Z,21.60
2022-08-24T00:28:57.644Z,21.90
2022-08-24T00:31:25.722Z,23.37
2022-08-24T00:33:53.777Z,21.97
2022-08-24T00:36:23.387Z,23.23
2022-08-24T00:38:51.598Z,22.80
2022-08-24T00:41:19.796Z,22.30
2022-08-24T00:43:55.684Z,22.33
2022-08-24T00:46:25.338Z,23.07
2022-08-24T00:48:56.656Z,24.13
2022-08-24T00:51:27.895Z,23.70
2022-08-24T00:53:57.760Z,21.90
2022-08-24T00:56:28.112Z,21.97
2022-08-24T00:58:58.334Z,23.33
2022-08-24T01:01:27.529Z,22.13
2022-08-24T01:03:57.232Z,22.77
2022-08-24T01:06:26.906Z,22.37
2022-08-24T01:08:56.706Z,22.80
2022-08-24T01:11:26.585Z,23.10
2022-08-24T01:13:55.568Z,24.40
2022-08-24T01:16:38.057Z,22.83
2022-08-24T01:19:09.356Z,22.03
2022-08-24T01:21:42.283Z,23.57
2022-08-24T01:24:14.240Z,23.73
2022-08-24T01:26:45.086Z,23.80
2022-08-24T01:29:14.864Z,24.03
2022-08-24T01:31:43.116Z,25.37
2022-08-24T01:34:11.423Z,25.03
2022-08-24T01:36:40.844Z,26.00
2022-08-24T01:39:12.166Z,26.17
2022-08-24T01:41:42.012Z,25.53
2022-08-24T01:44:10.571Z,24.90
2022-08-24T01:46:38.783Z,26.23
2022-08-24T01:49:07.244Z,25.57
2022-08-24T01:51:35.600Z,25.30
2022-08-24T01:54:05.689Z,24.83
2022-08-24T01:56:34.543Z,24.50
2022-08-24T01:59:04.425Z,25.33
2022-08-24T02:01:34.841Z,24.87
2022-08-24T02:04:04.246Z,24.87
2022-08-24T02:06:33.197Z,26.30
2022-08-24T02:09:01.311Z,24.80
2022-08-24T02:11:29.781Z,25.47
2022-08-24T02:13:58.497Z,24.80
2022-08-24T02:16:30.018Z,24.20
2022-08-24T02:18:58.210Z,26.50
2022-08-24T02:21:26.807Z,25.13
2022-08-24T02:23:54.863Z,25.50
2022-08-24T02:26:23.328Z,25.03
2022-08-24T02:28:56.531Z,26.03
2022-08-24T02:31:27.572Z,25.97
2022-08-24T02:33:57.090Z,24.90
2022-08-24T02:36:26.457Z,25.03
2022-08-24T02:38:54.777Z,25.70
2022-08-24T02:41:24.910Z,25.37
2022-08-24T02:43:53.113Z,25.37
2022-08-24T02:46:21.651Z,25.83
2022-08-24T02:49:11.459Z,25.17
2022-08-24T02:51:44.055Z,24.90
2022-08-24T02:54:14.473Z,25.63
2022-08-24T02:56:42.560Z,24.83
2022-08-24T02:59:11.414Z,24.97
2022-08-24T03:01:39.589Z,24.93
2022-08-24T03:04:08.461Z,24.97
2022-08-24T03:06:36.529Z,25.13
2022-08-24T03:09:06.435Z,25.60
2022-08-24T03:11:34.512Z,23.30
2022-08-24T03:14:02.888Z,23.40
2022-08-24T03:16:31.922Z,25.00
2022-08-24T03:19:00.189Z,23.67
2022-08-24T03:21:28.479Z,23.03
2022-08-24T03:23:56.527Z,23.87
2022-08-24T03:26:26.041Z,23.27
2022-08-24T03:28:55.419Z,22.97
2022-08-24T03:31:23.499Z,23.20
2022-08-24T03:33:52.694Z,21.73
2022-08-24T03:36:20.834Z,23.80
2022-08-24T03:38:48.894Z,22.43
2022-08-24T03:41:16.994Z,20.60
2022-08-24T03:43:49.919Z,22.13
2022-08-24T03:46:19.428Z,21.57
2022-08-24T03:48:47.792Z,21.03
2022-08-24T03:51:16.948Z,21.63
2022-08-24T03:53:45.147Z,21.23
2022-08-24T03:56:23.252Z,21.00
2022-08-24T03:58:53.699Z,22.07
2022-08-24T04:01:22.405Z,22.07
2022-08-24T04:03:53.615Z,20.33
2022-08-24T04:06:22.853Z,21.87
2022-08-24T04:08:52.460Z,20.93
2022-08-24T04:11:23.210Z,20.53
2022-08-24T04:13:53.515Z,20.53
2022-08-24T04:16:22.279Z,20.50
2022-08-24T04:18:50.808Z,19.43
2022-08-24T04:21:20.542Z,20.37
2022-08-24T04:23:49.080Z,21.10
2022-08-24T04:26:32.395Z,19.67
2022-08-24T04:29:09.592Z,19.87
2022-08-24T04:31:38.090Z,20.07
2022-08-24T04:34:06.857Z,20.17
2022-08-24T04:36:35.567Z,19.50
2022-08-24T04:39:03.974Z,21.57
2022-08-24T04:41:32.152Z,19.47
2022-08-24T04:44:00.838Z,21.00
2022-08-24T04:46:31.097Z,20.40
2022-08-24T04:48:59.195Z,20.23
2022-08-24T04:51:27.296Z,20.73
2022-08-24T04:53:58.662Z,21.50
2022-08-24T04:56:27.277Z,20.83
2022-08-24T04:58:55.906Z,21.07
2022-08-24T05:01:25.845Z,21.00
2022-08-24T05:03:56.268Z,21.47
2022-08-24T05:06:26.352Z,19.77
2022-08-24T05:08:54.619Z,21.40
2022-08-24T05:11:23.263Z,20.97
2022-08-24T05:13:53.036Z,21.03
2022-08-24T05:16:21.540Z,29.40
2022-08-24T05:18:49.789Z,24.20
2022-08-24T05:21:21.684Z,20.93
2022-08-24T05:23:49.856Z,21.93
2022-08-24T05:26:18.958Z,20.70
2022-08-24T05:28:47.846Z,21.27
2022-08-24T05:31:17.425Z,18.30
2022-08-24T05:33:45.943Z,19.57
2022-08-24T05:36:16.801Z,20.73
2022-08-24T05:38:46.906Z,17.90
2022-08-24T05:41:15.027Z,19.00
2022-08-24T05:43:43.214Z,18.47
2022-08-24T05:46:11.385Z,18.63
2022-08-24T05:48:39.536Z,19.57
2022-08-24T05:51:08.872Z,19.40
2022-08-24T05:53:37.324Z,18.80
2022-08-24T05:56:07.904Z,17.73
2022-08-24T05:58:36.329Z,18.80
2022-08-24T06:01:07.072Z,17.70
2022-08-24T06:03:35.166Z,17.00
2022-08-24T06:06:03.752Z,16.27
2022-08-24T06:08:32.473Z,17.13
2022-08-24T06:11:01.281Z,16.30
2022-08-24T06:13:31.072Z,16.33
2022-08-24T06:16:20.910Z,16.63
2022-08-24T06:18:49.938Z,15.93
2022-08-24T06:21:19.111Z,17.07
2022-08-24T06:23:49.489Z,18.07
2022-08-24T06:26:34.864Z,19.53
2022-08-24T06:29:04.448Z,17.83
2022-08-24T06:31:39.725Z,18.83
2022-08-24T06:34:08.368Z,18.03
2022-08-24T06:36:36.421Z,18.50
2022-08-24T06:39:05.324Z,18.37
2022-08-24T06:41:34.216Z,19.80
2022-08-24T06:44:02.420Z,20.53
2022-08-24T06:46:33.002Z,19.37
2022-08-24T06:49:01.534Z,18.47
2022-08-24T06:51:29.924Z,19.47
2022-08-24T06:53:58.913Z,19.07
2022-08-24T06:56:26.985Z,18.33
2022-08-24T06:58:55.684Z,19.33
2022-08-24T07:01:24.908Z,18.33
2022-08-24T07:03:54.805Z,18.13
2022-08-24T07:06:23.115Z,17.57
2022-08-24T07:08:51.285Z,17.07
2022-08-24T07:11:20.892Z,16.80
2022-08-24T07:13:49.489Z,17.10
2022-08-24T07:16:18.086Z,17.40
2022-08-24T07:18:49.671Z,16.00
2022-08-24T07:21:20.157Z,15.20
2022-08-24T07:23:48.731Z,14.40
2022-08-24T07:26:22.126Z,14.30
2022-08-24T07:28:50.850Z,13.60
2022-08-24T07:31:19.273Z,13.73
2022-08-24T07:33:47.559Z,14.07
2022-08-24T07:36:22.728Z,13.83
2022-08-24T07:38:53.554Z,13.03
2022-08-24T07:41:51.464Z,12.50
2022-08-24T07:44:11.054Z,13.00
2022-08-24T07:46:41.915Z,13.23
2022-08-24T07:49:28.084Z,11.97
2022-08-24T07:51:59.561Z,12.20
2022-08-24T07:54:29.287Z,12.17
2022-08-24T07:57:01.105Z,26.00
2022-08-24T07:59:29.119Z,39.20
2022-08-24T08:01:57.323Z,15.03
2022-08-24T08:04:26.288Z,12.00
2022-08-24T08:09:22.783Z,12.33
2022-08-24T08:11:52.355Z,12.80
2022-08-24T08:14:20.397Z,13.57
2022-08-24T08:16:48.548Z,12.77
2022-08-24T08:19:16.632Z,13.83
2022-08-24T08:22:02.165Z,15.03
2022-08-24T08:24:30.349Z,33.00
2022-08-24T08:27:00.493Z,15.47
2022-08-24T08:29:29.387Z,24.43
2022-08-24T08:31:57.452Z,13.53
2022-08-24T08:34:25.496Z,13.80
2022-08-24T08:36:54.445Z,13.67
2022-08-24T08:39:23.070Z,13.77
2022-08-24T08:42:05.236Z,14.83
2022-08-24T08:44:43.561Z,21.63
2022-08-24T08:47:18.290Z,28.43
2022-08-24T08:49:56.971Z,19.63
2022-08-24T08:52:34.777Z,18.13
2022-08-24T08:55:06.542Z,15.43
2022-08-24T08:57:40.955Z,14.07
2022-08-24T09:00:15.499Z,14.13
2022-08-24T09:03:03.417Z,14.17
2022-08-24T09:05:41.173Z,14.33
2022-08-24T09:08:17.457Z,14.33
2022-08-24T09:10:54.760Z,14.13
2022-08-24T09:13:32.599Z,13.70
2022-08-24T09:16:10.441Z,13.90
2022-08-24T09:18:48.437Z,13.93
2022-08-24T09:21:23.761Z,15.60
2022-08-24T09:23:55.773Z,13.20
2022-08-24T09:26:27.909Z,24.83
2022-08-24T09:29:01.635Z,15.63
2022-08-24T09:31:43.063Z,14.23
2022-08-24T09:34:18.906Z,13.73
2022-08-24T09:37:02.354Z,13.03
2022-08-24T09:39:37.094Z,12.63
2022-08-24T09:42:19.893Z,13.13
2022-08-24T09:45:06.492Z,13.53
2022-08-24T09:47:49.329Z,13.83
2022-08-24T09:50:30.138Z,15.80
2022-08-24T09:53:06.483Z,15.20
2022-08-24T09:55:47.849Z,15.07
2022-08-24T09:58:20.122Z,13.93
2022-08-24T10:00:49.777Z,13.93
2022-08-24T10:03:37.841Z,14.23
2022-08-24T10:06:15.084Z,13.93
2022-08-24T10:08:51.984Z,12.53
2022-08-24T10:11:23.481Z,14.37
2022-08-24T10:13:56.794Z,12.50
2022-08-24T10:16:29.039Z,31.13
2022-08-24T10:19:03.315Z,34.20
2022-08-24T10:21:39.224Z,13.77
2022-08-24T10:24:13.980Z,13.73
2022-08-24T10:26:49.295Z,13.53
2022-08-24T10:29:25.057Z,15.10
2022-08-24T10:32:04.120Z,13.23
2022-08-24T10:34:41.832Z,12.03
2022-08-24T10:37:27.109Z,11.93
2022-08-24T10:40:10.990Z,12.77
2022-08-24T10:43:10.481Z,12.33
2022-08-24T10:45:59.425Z,12.43
2022-08-24T10:48:54.847Z,11.90
2022-08-24T10:51:30.731Z,12.20
2022-08-24T10:54:00.799Z,12.40
2022-08-24T10:56:32.555Z,11.27
2022-08-24T10:59:09.010Z,10.77
2022-08-24T11:01:37.952Z,10.43
2022-08-24T11:04:08.844Z,10.80
2022-08-24T11:06:38.958Z,10.07
2022-08-24T11:09:10.143Z,9.57
2022-08-24T11:11:40.640Z,9.17
2022-08-24T11:14:09.949Z,8.93
2022-08-24T11:16:39.260Z,9.00
2022-08-24T11:19:11.058Z,8.97
2022-08-24T11:21:41.139Z,9.13
2022-08-24T11:24:12.669Z,8.53
2022-08-24T11:26:53.819Z,9.20
2022-08-24T11:29:24.364Z,8.23
2022-08-24T11:31:53.421Z,8.97
2022-08-24T11:34:31.438Z,8.60
2022-08-24T11:36:59.908Z,9.10
2022-08-24T11:39:32.373Z,9.80
2022-08-24T11:42:03.938Z,10.17
2022-08-24T11:44:40.258Z,9.43
2022-08-24T11:47:19.686Z,9.33
2022-08-24T11:49:53.897Z,9.50
2022-08-24T11:52:28.523Z,9.53
2022-08-24T11:55:02.206Z,9.40
2022-08-24T11:57:38.975Z,8.70
2022-08-24T12:00:18.745Z,9.30
2022-08-24T12:02:52.838Z,8.77
2022-08-24T12:05:25.512Z,8.97
2022-08-24T12:08:01.897Z,9.50
2022-08-24T12:10:36.079Z,8.97
2022-08-24T12:13:08.048Z,9.23
2022-08-24T12:15:45.244Z,8.57
2022-08-24T12:18:23.577Z,9.03
2022-08-24T12:20:52.723Z,9.00
2022-08-24T12:23:25.563Z,9.07
2022-08-24T12:26:04.659Z,8.43
2022-08-24T12:28:37.467Z,8.00
2022-08-24T12:31:09.561Z,8.03
2022-08-24T12:33:39.564Z,8.07
2022-08-24T12:36:15.038Z,8.60
2022-08-24T12:38:45.366Z,8.70
2022-08-24T12:41:19.462Z,8.97
2022-08-24T12:43:48.949Z,9.43
2022-08-24T12:46:18.287Z,8.40
2022-08-24T12:48:49.099Z,8.23
2022-08-24T12:51:21.371Z,9.47
2022-08-24T12:54:01.814Z,8.63
2022-08-24T12:56:38.575Z,8.50
2022-08-24T12:59:09.152Z,8.70
2022-08-24T13:01:39.281Z,8.97
2022-08-24T13:04:10.125Z,8.83
2022-08-24T13:06:40.550Z,9.40
2022-08-24T13:09:10.404Z,8.97
2022-08-24T13:11:39.962Z,8.83
2022-08-24T13:14:19.036Z,8.10
2022-08-24T13:16:49.078Z,7.97
2022-08-24T13:19:19.760Z,7.67
2022-08-24T13:21:53.253Z,7.67
2022-08-24T13:24:50.120Z,7.27
2022-08-24T13:27:39.050Z,7.37
2022-08-24T13:30:19.495Z,7.67
2022-08-24T13:32:51.763Z,7.10
2022-08-24T13:35:35.185Z,7.33
2022-08-24T13:38:21.269Z,7.47
2022-08-24T13:40:52.868Z,6.33
2022-08-24T13:43:25.297Z,7.20
2022-08-24T13:45:58.588Z,6.57
2022-08-24T13:48:30.515Z,6.90
2022-08-24T13:51:14.286Z,6.67
2022-08-24T13:53:48.036Z,7.03
2022-08-24T13:56:49.018Z,6.70
2022-08-24T13:59:22.684Z,6.70
2022-08-24T14:02:06.787Z,6.67
2022-08-24T14:04:45.488Z,7.40
2022-08-24T14:07:16.248Z,7.23
2022-08-24T14:09:47.693Z,6.73
2022-08-24T14:12:20.310Z,6.33
2022-08-24T14:14:54.489Z,6.80
2022-08-24T14:17:47.499Z,6.37
2022-08-24T14:20:22.047Z,7.10
2022-08-24T14:23:00.658Z,7.63
2022-08-24T14:25:30.778Z,7.37
2022-08-24T14:28:13.843Z,6.90
2022-08-24T14:31:11.148Z,6.60
2022-08-24T14:33:44.971Z,6.20
2022-08-24T14:36:16.642Z,5.83
2022-08-24T14:38:51.087Z,6.20
2022-08-24T14:41:21.731Z,5.53
2022-08-24T14:44:07.714Z,5.97
2022-08-24T14:46:39.642Z,6.60
2022-08-24T14:49:19.561Z,6.30
2022-08-24T14:52:02.366Z,5.70
2022-08-24T14:54:37.919Z,6.17
2022-08-24T14:57:21.731Z,6.30
2022-08-24T14:59:55.547Z,7.13
2022-08-24T15:02:44.423Z,7.60
2022-08-24T15:05:19.446Z,7.30
2022-08-24T15:07:54.600Z,7.13
2022-08-24T15:10:25.122Z,6.70
2022-08-24T15:12:55.968Z,6.77
2022-08-24T15:15:33.916Z,7.43
2022-08-24T15:18:06.440Z,7.10
2022-08-24T15:20:45.964Z,7.50
2022-08-24T15:23:18.563Z,7.87
2022-08-24T15:25:49.093Z,7.30
2022-08-24T15:28:25.136Z,7.17
2022-08-24T15:30:58.327Z,7.53
2022-08-24T15:33:27.467Z,7.73
2022-08-24T15:36:07.452Z,7.27
2022-08-24T15:38:37.316Z,7.23
2022-08-24T15:41:07.700Z,7.33
2022-08-24T15:43:37.881Z,7.97
2022-08-24T15:46:06.325Z,7.13
2022-08-24T15:48:34.626Z,7.17
2022-08-24T15:51:02.748Z,7.33
2022-08-24T15:53:36.044Z,7.87
2022-08-24T15:56:29.956Z,7.57
2022-08-24T15:59:07.154Z,7.90
2022-08-24T16:01:52.461Z,7.10
2022-08-24T16:04:35.341Z,7.83
2022-08-24T16:07:03.456Z,6.80
2022-08-24T16:09:38.985Z,7.20
2022-08-24T16:12:08.160Z,7.97
2022-08-24T16:14:38.262Z,7.47
2022-08-24T16:17:20.626Z,7.83
2022-08-24T16:19:51.005Z,7.30
2022-08-24T16:22:27.160Z,6.67
2022-08-24T16:25:11.013Z,7.63
2022-08-24T16:27:56.509Z,6.17
2022-08-24T16:30:26.738Z,6.67
2022-08-24T16:32:56.865Z,7.03
2022-08-24T16:35:25.708Z,6.70
2022-08-24T16:37:55.609Z,7.33
2022-08-24T16:40:25.456Z,6.73
2022-08-24T16:42:55.580Z,7.30
2022-08-24T16:45:23.972Z,7.43
2022-08-24T16:47:52.248Z,6.90
2022-08-24T16:50:21.140Z,7.53
2022-08-24T16:52:50.509Z,6.60
2022-08-24T16:55:18.629Z,7.10
2022-08-24T16:57:48.423Z,7.97
2022-08-24T17:00:17.743Z,8.53
2022-08-24T17:02:48.361Z,7.77
2022-08-24T17:05:16.931Z,6.60
2022-08-24T17:07:45.750Z,7.37
2022-08-24T17:10:15.632Z,6.80
2022-08-24T17:12:43.808Z,6.83
2022-08-24T17:15:16.358Z,7.30
2022-08-24T17:17:48.955Z,6.93
2022-08-24T17:20:17.312Z,6.97
2022-08-24T17:22:45.376Z,7.43
2022-08-24T17:25:13.437Z,7.30
2022-08-24T17:27:41.693Z,7.13
2022-08-24T17:30:10.727Z,7.03
2022-08-24T17:32:40.422Z,7.00
2022-08-24T17:35:08.737Z,6.93
2022-08-24T17:37:38.733Z,7.03
2022-08-24T17:40:09.545Z,7.40
2022-08-24T17:42:50.862Z,7.33
2022-08-24T17:45:19.779Z,7.17
2022-08-24T17:47:49.461Z,7.70
2022-08-24T17:50:19.493Z,7.17
2022-08-24T17:52:47.610Z,9.17
2022-08-24T17:55:17.325Z,8.47
2022-08-24T17:57:53.137Z,8.00
2022-08-24T18:00:21.238Z,19.33
2022-08-24T18:02:50.833Z,9.53
2022-08-24T18:05:19.403Z,10.50
2022-08-24T18:07:54.462Z,7.93
2022-08-24T18:10:24.620Z,8.00
2022-08-24T18:12:52.711Z,7.27
2022-08-24T18:15:20.894Z,8.60
2022-08-24T18:17:52.102Z,8.50
2022-08-24T18:20:23.062Z,8.37
2022-08-24T18:22:53.777Z,7.87
2022-08-24T18:25:24.322Z,23.20
2022-08-24T18:27:53.520Z,10.63
2022-08-24T18:30:22.523Z,9.33
2022-08-24T18:32:54.031Z,8.70
2022-08-24T18:35:22.835Z,8.60
2022-08-24T18:37:51.075Z,8.53
2022-08-24T18:40:21.279Z,8.67
2022-08-24T18:42:50.980Z,10.30
2022-08-24T18:45:19.564Z,9.93
2022-08-24T18:47:52.964Z,9.13
2022-08-24T18:50:23.165Z,9.27
2022-08-24T18:52:51.435Z,8.57
2022-08-24T18:55:20.070Z,9.10
2022-08-24T18:57:48.159Z,11.17
2022-08-24T19:00:16.707Z,12.83
2022-08-24T19:02:45.293Z,14.97
2022-08-24T19:05:14.943Z,9.30
2022-08-24T19:07:45.437Z,9.63
2022-08-24T19:10:14.848Z,9.83
2022-08-24T19:12:47.002Z,8.20
2022-08-24T19:15:35.688Z,9.30
2022-08-24T19:18:05.512Z,8.97
2022-08-24T19:20:34.326Z,8.70
2022-08-24T19:23:07.049Z,10.30
2022-08-24T19:25:35.440Z,9.67
2022-08-24T19:28:03.801Z,9.40
2022-08-24T19:30:31.838Z,51.30
2022-08-24T19:33:00.720Z,174.87
2022-08-24T19:35:29.201Z,88.73
2022-08-24T19:37:57.338Z,283.83
2022-08-24T19:40:27.043Z,257.47
2022-08-24T19:42:55.857Z,90.40
2022-08-24T19:45:42.306Z,211.60
2022-08-24T19:48:10.722Z,29.37
2022-08-24T19:50:38.813Z,10.80
2022-08-24T19:53:07.420Z,10.80
2022-08-24T19:55:36.957Z,11.07
2022-08-24T19:58:07.174Z,10.80
2022-08-24T20:00:38.953Z,29.57
2022-08-24T20:03:08.664Z,210.07
2022-08-24T20:05:37.112Z,235.97
2022-08-24T20:08:05.691Z,273.07
2022-08-24T20:10:34.584Z,88.40
2022-08-24T20:13:04.233Z,15.47
2022-08-24T20:15:33.484Z,11.77
2022-08-24T20:18:01.783Z,15.77
2022-08-24T20:20:30.588Z,202.83
2022-08-24T20:23:03.065Z,194.10
2022-08-24T20:25:31.376Z,48.63
2022-08-24T20:28:25.430Z,14.57
2022-08-24T20:30:50.901Z,11.93
2022-08-24T20:33:21.293Z,10.87
2022-08-24T20:35:49.411Z,12.43
2022-08-24T20:38:18.645Z,12.30
2022-08-24T20:40:46.912Z,100.87
2022-08-24T20:43:15.133Z,184.03
2022-08-24T20:45:43.301Z,165.63
2022-08-24T20:48:13.278Z,30.23
2022-08-24T20:50:43.640Z,13.83
2022-08-24T20:53:12.098Z,153.93
2022-08-24T20:55:40.562Z,323.50
2022-08-24T20:58:08.873Z,138.57
2022-08-24T21:00:37.594Z,25.20
2022-08-24T21:03:05.841Z,233.70
2022-08-24T21:05:35.442Z,337.23
2022-08-24T21:08:04.322Z,283.53
2022-08-24T21:10:32.632Z,66.13
2022-08-24T21:13:00.747Z,17.60
2022-08-24T21:15:28.870Z,14.23
2022-08-24T21:17:57.250Z,12.13
2022-08-24T21:20:25.839Z,13.63
2022-08-24T21:22:55.321Z,12.40
2022-08-24T21:25:23.609Z,13.33
2022-08-24T21:27:51.849Z,13.70
2022-08-24T21:30:20.933Z,13.03
2022-08-24T21:33:06.199Z,12.30
2022-08-24T21:35:34.617Z,11.73
2022-08-24T21:38:04.552Z,12.60
2022-08-24T21:40:33.036Z,12.13
2022-08-24T21:43:01.208Z,12.63
2022-08-24T21:45:29.688Z,12.20
2022-08-24T21:47:57.773Z,11.53
2022-08-24T21:50:26.101Z,12.37
2022-08-24T21:52:54.810Z,11.63
2022-08-24T21:55:24.928Z,12.33
2022-08-24T21:57:53.000Z,11.97
2022-08-24T22:00:22.346Z,13.13
2022-08-24T22:02:50.459Z,12.47
2022-08-24T22:05:18.974Z,11.60
2022-08-24T22:07:47.144Z,11.73
2022-08-24T22:10:15.781Z,11.63
2022-08-24T22:12:45.410Z,12.60
2022-08-24T22:15:16.025Z,12.10
2022-08-24T22:17:46.736Z,12.73
2022-08-24T22:20:23.311Z,12.27
2022-08-24T22:22:52.191Z,12.90
2022-08-24T22:25:20.650Z,12.63
2022-08-24T22:27:50.314Z,11.90
2022-08-24T22:30:19.444Z,11.40
2022-08-24T22:32:47.667Z,12.50
2022-08-24T22:35:15.783Z,12.63
2022-08-24T22:37:43.899Z,12.60
2022-08-24T22:40:13.165Z,12.53
2022-08-24T22:42:41.686Z,12.27
2022-08-24T22:45:12.272Z,12.87
2022-08-24T22:47:40.347Z,12.43
2022-08-24T22:50:09.613Z,12.07
2022-08-24T22:52:37.731Z,12.23
2022-08-24T22:55:06.186Z,12.37
2022-08-24T22:58:03.239Z,12.23
2022-08-24T23:00:32.805Z,11.47
2022-08-24T23:03:00.971Z,12.30
2022-08-24T23:05:29.014Z,12.47
2022-08-24T23:07:57.342Z,13.00
2022-08-24T23:10:25.839Z,12.97
2022-08-24T23:12:53.946Z,12.10
2022-08-24T23:15:22.450Z,11.83
2022-08-24T23:17:51.951Z,11.93
2022-08-24T23:20:19.502Z,13.53
2022-08-24T23:22:48.514Z,11.93
2022-08-24T23:25:16.686Z,12.40
2022-08-24T23:27:49.359Z,12.10
2022-08-24T23:30:18.185Z,12.60
2022-08-24T23:32:46.488Z,12.37
2022-08-24T23:35:16.040Z,12.53
2022-08-24T23:37:44.114Z,11.73
2022-08-24T23:40:12.591Z,12.73
2022-08-24T23:42:40.682Z,11.63
2022-08-24T23:45:11.756Z,12.13
2022-08-24T23:47:40.303Z,12.57
2022-08-24T23:50:10.875Z,12.47
2022-08-24T23:52:40.855Z,11.90
2022-08-24T23:55:21.006Z,13.23
2022-08-24T23:57:49.842Z,13.27
